Time;durP1;ratioP1;P1;durP2;ratioP2;P2;SDS_P1;SDS_P2;PMS_P1;PMS_P2;Temp;Humidity;BMP_temperature;BMP_pressure;BME280_temperature;BME280_humidity;BME280_pressure;Samples;Min_cycle;Max_cycle;Signal;HPM_P1;HPM_P2
2023/01/28 00:01:04;;;;;;;11.27;8.90;;;3.70;1.00;;;;;;5062839;28;20495;-63
2023/01/28 00:03:30;;;;;;;11.20;8.30;;;3.50;1.00;;;;;;5052073;28;20185;-63
2023/01/28 00:06:02;;;;;;;9.73;7.73;;;3.40;1.00;;;;;;5071734;28;20943;-63
2023/01/28 00:08:27;;;;;;;11.93;9.10;;;3.30;1.00;;;;;;5051986;28;20638;-63
2023/01/28 00:10:53;;;;;;;11.33;7.87;;;3.30;1.00;;;;;;5052193;28;20542;-62
2023/01/28 00:13:19;;;;;;;10.03;8.30;;;3.10;1.00;;;;;;5047212;28;20926;-62
2023/01/28 00:15:45;;;;;;;9.00;7.70;;;3.10;1.00;;;;;;5046071;28;20277;-63
2023/01/28 00:18:10;;;;;;;9.07;8.10;;;3.00;1.00;;;;;;5047370;28;20674;-62
2023/01/28 00:20:36;;;;;;;10.67;7.67;;;2.90;1.00;;;;;;5049909;28;20199;-62
2023/01/28 00:23:01;;;;;;;9.53;7.07;;;2.90;1.00;;;;;;5051265;28;20277;-63
2023/01/28 00:25:27;;;;;;;11.47;8.40;;;2.90;1.00;;;;;;5048163;28;20676;-62
2023/01/28 00:27:53;;;;;;;11.10;9.83;;;2.90;1.00;;;;;;5048066;28;20189;-61
2023/01/28 00:30:19;;;;;;;11.73;9.10;;;2.90;1.00;;;;;;5051068;28;20216;-63
2023/01/28 00:32:45;;;;;;;8.40;6.73;;;3.70;1.00;;;;;;5042921;28;20207;-64
2023/01/28 00:35:10;;;;;;;8.93;6.73;;;3.00;1.00;;;;;;5048079;28;20459;-63
2023/01/28 00:37:36;;;;;;;9.70;7.13;;;3.00;1.00;;;;;;5050089;28;20718;-62
2023/01/28 00:40:02;;;;;;;8.07;6.40;;;3.00;1.00;;;;;;5048646;28;20236;-63
2023/01/28 00:42:28;;;;;;;16.80;8.00;;;2.90;1.00;;;;;;5045701;28;20456;-62
2023/01/28 00:44:53;;;;;;;9.23;8.07;;;2.90;1.00;;;;;;5050615;28;20725;-62
2023/01/28 00:47:20;;;;;;;11.47;6.63;;;3.00;1.00;;;;;;5045961;28;20193;-62
2023/01/28 00:49:45;;;;;;;8.57;7.53;;;3.00;1.00;;;;;;5046534;28;20192;-62
2023/01/28 00:52:12;;;;;;;9.03;6.53;;;3.00;1.00;;;;;;5045350;28;20475;-63
2023/01/28 00:54:37;;;;;;;9.13;7.00;;;2.90;1.00;;;;;;5047890;28;20200;-63
2023/01/28 00:57:03;;;;;;;9.23;6.23;;;2.90;1.00;;;;;;5044852;28;20453;-63
2023/01/28 00:59:28;;;;;;;8.27;6.80;;;3.00;1.00;;;;;;5049331;28;20183;-62
2023/01/28 01:02:11;;;;;;;9.43;8.37;;;3.00;1.00;;;;;;5047548;28;20213;-63
2023/01/28 01:04:37;;;;;;;14.03;7.30;;;2.90;1.00;;;;;;5049234;28;20859;-63
2023/01/28 01:07:03;;;;;;;10.50;6.90;;;2.90;1.00;;;;;;5048265;28;20451;-63
2023/01/28 01:09:28;;;;;;;10.67;8.37;;;3.00;1.00;;;;;;5047374;28;21172;-63
2023/01/28 01:11:54;;;;;;;12.83;7.73;;;3.10;1.00;;;;;;5048263;28;20669;-62
2023/01/28 01:14:20;;;;;;;11.37;8.47;;;3.30;1.00;;;;;;5049438;28;20213;-62
2023/01/28 01:16:46;;;;;;;10.53;7.97;;;3.00;1.00;;;;;;5046301;28;20187;-62
2023/01/28 01:19:12;;;;;;;12.50;7.57;;;3.00;1.00;;;;;;5048774;28;20213;-62
2023/01/28 01:21:38;;;;;;;7.17;5.33;;;3.20;1.00;;;;;;5049101;28;20466;-62
2023/01/28 01:24:03;;;;;;;10.30;7.77;;;2.80;1.00;;;;;;5049249;28;20449;-63
2023/01/28 01:26:29;;;;;;;13.17;8.83;;;2.80;1.00;;;;;;5048017;28;20197;-62
2023/01/28 01:28:55;;;;;;;11.23;9.00;;;2.90;1.00;;;;;;5048853;28;20272;-62
2023/01/28 01:31:21;;;;;;;11.73;6.80;;;2.90;1.00;;;;;;5045441;28;20795;-62
2023/01/28 01:33:48;;;;;;;13.97;10.33;;;2.80;1.00;;;;;;5046140;28;20643;-61
2023/01/28 01:36:17;;;;;;;11.07;8.40;;;2.80;1.00;;;;;;5045956;28;20490;-63
2023/01/28 01:38:43;;;;;;;14.30;9.47;;;2.80;1.00;;;;;;5049876;28;20487;-62
2023/01/28 01:41:15;;;;;;;16.93;10.97;;;2.90;1.00;;;;;;5042837;28;20556;-64
2023/01/28 01:43:59;;;;;;;13.53;10.57;;;3.00;1.00;;;;;;5042117;28;20658;-62
2023/01/28 01:46:37;;;;;;;11.90;8.67;;;3.00;1.00;;;;;;5047279;28;20578;-63
2023/01/28 01:49:24;;;;;;;13.70;8.60;;;3.10;1.00;;;;;;5046088;28;22119;-62
2023/01/28 01:52:18;;;;;;;11.77;8.33;;;3.00;1.00;;;;;;5040927;28;20483;-63
2023/01/28 01:54:47;;;;;;;12.30;7.97;;;3.00;1.00;;;;;;5048962;28;20452;-62
2023/01/28 01:57:20;;;;;;;9.37;7.27;;;2.90;1.00;;;;;;5052385;28;20437;-62
2023/01/28 01:59:46;;;;;;;12.67;9.10;;;2.80;1.00;;;;;;5048661;28;20488;-61
2023/01/28 02:02:12;;;;;;;10.93;7.90;;;2.80;1.00;;;;;;5046974;28;20514;-62
2023/01/28 02:04:40;;;;;;;11.23;6.60;;;1.40;1.00;;;;;;5048525;28;20939;-62
2023/01/28 02:07:08;;;;;;;14.60;9.47;;;2.90;1.00;;;;;;5049258;28;20527;-63
2023/01/28 02:09:35;;;;;;;9.67;8.30;;;2.90;1.00;;;;;;5047856;28;20447;-62
2023/01/28 02:12:22;;;;;;;9.90;7.23;;;2.90;1.00;;;;;;5043474;28;20990;-63
2023/01/28 02:14:56;;;;;;;9.23;7.67;;;2.90;1.00;;;;;;5048236;28;20982;-62
2023/01/28 02:17:22;;;;;;;11.60;8.30;;;2.90;1.00;;;;;;5047044;28;20445;-62
2023/01/28 02:19:57;;;;;;;12.30;9.00;;;3.00;1.00;;;;;;5054853;28;20888;-63
2023/01/28 02:22:23;;;;;;;8.80;6.80;;;3.10;1.00;;;;;;5049575;28;20444;-61
2023/01/28 02:24:57;;;;;;;13.03;7.90;;;3.00;1.00;;;;;;5047211;28;20511;-62
2023/01/28 02:27:38;;;;;;;10.63;7.70;;;3.00;1.00;;;;;;5046843;28;20620;-62
2023/01/28 02:30:25;;;;;;;14.10;8.00;;;3.00;1.00;;;;;;5048635;28;20445;-63
2023/01/28 02:32:56;;;;;;;10.30;7.70;;;2.90;1.00;;;;;;5043783;28;20479;-62
2023/01/28 02:35:31;;;;;;;10.53;8.30;;;3.00;1.00;;;;;;5046985;28;20830;-63
2023/01/28 02:38:07;;;;;;;12.20;8.70;;;3.10;1.00;;;;;;5044908;28;20464;-62
2023/01/28 02:43:43;;;;;;;13.77;10.13;;;3.10;1.00;;;;;;5046270;28;20450;-63
2023/01/28 02:49:13;;;;;;;19.23;10.10;;;3.30;1.00;;;;;;5045513;28;20456;-61
2023/01/28 02:51:42;;;;;;;10.67;8.60;;;3.30;1.00;;;;;;5038102;28;20689;-62
2023/01/28 02:54:26;;;;;;;10.27;7.60;;;3.40;1.00;;;;;;5043486;28;20478;-63
2023/01/28 02:57:05;;;;;;;15.53;8.30;;;3.50;1.00;;;;;;5049019;28;20531;-63
2023/01/28 02:59:48;;;;;;;12.30;8.77;;;3.60;1.00;;;;;;5044627;28;20579;-62
2023/01/28 03:02:43;;;;;;;9.40;7.93;;;3.70;1.00;;;;;;5045744;28;20535;-62
2023/01/28 03:05:27;;;;;;;8.93;7.00;;;3.80;1.00;;;;;;5045044;28;20456;-62
2023/01/28 03:07:53;;;;;;;11.10;8.13;;;3.90;1.00;;;;;;5045317;28;21206;-62
2023/01/28 03:10:23;;;;;;;11.27;8.83;;;3.90;1.00;;;;;;5045338;28;20438;-61
2023/01/28 03:38:53;;;;;;;18.13;9.30;;;3.10;1.00;;;;;;5046666;28;20451;-62
2023/01/28 03:41:24;;;;;;;10.37;8.50;;;3.30;1.00;;;;;;5052078;28;20781;-63
2023/01/28 03:43:51;;;;;;;10.37;8.50;;;3.20;1.00;;;;;;5050010;28;20205;-62
2023/01/28 03:46:17;;;;;;;10.60;6.93;;;3.20;1.00;;;;;;5048646;28;20514;-63
2023/01/28 03:48:43;;;;;;;17.20;8.77;;;3.10;1.00;;;;;;5047560;28;20444;-61
2023/01/28 03:51:09;;;;;;;14.70;9.70;;;2.90;1.00;;;;;;5046890;28;20459;-62
2023/01/28 03:53:35;;;;;;;10.70;9.17;;;2.90;1.00;;;;;;5047128;28;20488;-61
2023/01/28 03:56:00;;;;;;;11.10;8.07;;;2.90;1.00;;;;;;5046088;28;20535;-62
2023/01/28 03:58:45;;;;;;;14.07;9.10;;;2.90;1.00;;;;;;5043124;28;20264;-61
2023/01/28 04:01:11;;;;;;;11.90;9.13;;;2.90;1.00;;;;;;5048867;28;20194;-61
2023/01/28 04:03:37;;;;;;;12.40;8.40;;;2.80;1.00;;;;;;5051682;28;20780;-62
2023/01/28 04:06:05;;;;;;;12.90;9.40;;;2.80;1.00;;;;;;5049494;28;20460;-62
2023/01/28 04:08:31;;;;;;;10.37;8.30;;;2.80;1.00;;;;;;5048564;28;20475;-62
2023/01/28 04:10:56;;;;;;;12.60;9.03;;;2.80;1.00;;;;;;5055463;28;20536;-62
2023/01/28 04:13:22;;;;;;;15.33;8.37;;;2.80;1.00;;;;;;5049643;28;20729;-62
2023/01/28 04:15:48;;;;;;;15.87;8.90;;;2.70;1.00;;;;;;5060985;28;20188;-62
2023/01/28 04:18:14;;;;;;;13.33;8.40;;;2.60;1.00;;;;;;5044088;28;20924;-61
2023/01/28 04:20:40;;;;;;;11.70;8.67;;;2.60;1.00;;;;;;5049521;28;20209;-61
2023/01/28 04:23:10;;;;;;;10.40;7.73;;;2.70;1.00;;;;;;5047851;28;20452;-61
2023/01/28 04:25:35;;;;;;;10.70;7.37;;;2.60;1.00;;;;;;5047270;28;20226;-60
2023/01/28 04:28:01;;;;;;;10.23;7.70;;;2.60;1.00;;;;;;5047632;28;20459;-62
2023/01/28 04:30:27;;;;;;;8.17;7.20;;;2.60;1.00;;;;;;5049680;28;20271;-62
2023/01/28 04:32:53;;;;;;;9.40;7.23;;;2.60;1.00;;;;;;5046602;28;20477;-61
2023/01/28 04:35:19;;;;;;;8.90;7.40;;;2.60;1.00;;;;;;5048153;28;20194;-61
2023/01/28 04:37:45;;;;;;;13.37;7.10;;;2.60;1.00;;;;;;5045521;28;20448;-60
2023/01/28 04:40:12;;;;;;;12.37;7.37;;;2.60;1.00;;;;;;5047319;28;20341;-60
2023/01/28 04:42:38;;;;;;;7.83;6.17;;;2.60;1.00;;;;;;5047501;28;20201;-62
2023/01/28 04:45:04;;;;;;;8.23;6.37;;;2.50;1.00;;;;;;5045668;28;20448;-61
2023/01/28 04:47:30;;;;;;;8.73;6.30;;;2.40;1.00;;;;;;5048498;28;20458;-61
2023/01/28 04:49:55;;;;;;;10.23;5.97;;;2.40;1.00;;;;;;5048002;28;20440;-62
2023/01/28 04:52:21;;;;;;;10.27;5.67;;;2.40;1.00;;;;;;5047408;28;20225;-63
2023/01/28 04:54:47;;;;;;;6.60;5.13;;;2.40;1.00;;;;;;5045173;28;20364;-63
2023/01/28 04:57:12;;;;;;;6.93;5.93;;;2.20;1.00;;;;;;5048074;28;20276;-62
2023/01/28 04:59:38;;;;;;;6.33;5.13;;;2.00;1.00;;;;;;5043599;28;20188;-58
2023/01/28 05:02:04;;;;;;;6.43;5.20;;;2.10;1.00;;;;;;5047042;28;20273;-61
2023/01/28 05:04:29;;;;;;;11.17;7.73;;;2.10;1.00;;;;;;5049842;28;20610;-61
2023/01/28 05:06:55;;;;;;;8.73;7.00;;;2.00;1.00;;;;;;5046032;28;20193;-62
2023/01/28 05:09:20;;;;;;;6.87;4.30;;;1.90;1.00;;;;;;5048991;28;20208;-61
2023/01/28 05:11:46;;;;;;;9.13;4.93;;;1.90;1.00;;;;;;5041837;28;20196;-62
2023/01/28 05:14:12;;;;;;;7.60;5.70;;;1.80;1.00;;;;;;5047995;28;20213;-60
2023/01/28 05:16:38;;;;;;;9.30;7.20;;;1.70;1.00;;;;;;5050253;28;20513;-61
2023/01/28 05:19:03;;;;;;;6.60;5.73;;;1.80;1.00;;;;;;5051173;28;20275;-61
2023/01/28 05:21:29;;;;;;;11.50;5.00;;;1.80;1.00;;;;;;5050482;28;20193;-62
2023/01/28 05:23:54;;;;;;;8.40;5.50;;;1.80;1.00;;;;;;5047569;28;20196;-61
2023/01/28 05:26:20;;;;;;;7.17;5.03;;;1.80;1.00;;;;;;5047614;28;20252;-61
2023/01/28 05:28:46;;;;;;;5.00;4.50;;;1.90;1.00;;;;;;5048783;28;20185;-62
2023/01/28 05:31:11;;;;;;;8.20;5.47;;;2.00;1.00;;;;;;5046691;28;20190;-62
2023/01/28 05:33:37;;;;;;;6.73;4.97;;;2.00;1.00;;;;;;5043721;28;20217;-63
2023/01/28 05:36:03;;;;;;;5.37;4.50;;;2.00;1.00;;;;;;5046253;28;20268;-62
2023/01/28 05:38:29;;;;;;;6.67;5.07;;;1.90;1.00;;;;;;5046985;28;20495;-63
2023/01/28 05:40:55;;;;;;;6.90;4.97;;;1.90;1.00;;;;;;5046971;28;20475;-61
2023/01/28 05:43:20;;;;;;;5.13;4.73;;;1.90;1.00;;;;;;5046801;28;20268;-61
2023/01/28 05:45:46;;;;;;;6.60;5.20;;;1.90;1.00;;;;;;5044853;28;20215;-61
2023/01/28 05:48:13;;;;;;;7.23;6.53;;;1.90;1.00;;;;;;5047094;28;20199;-62
2023/01/28 05:50:38;;;;;;;10.67;7.03;;;2.10;1.00;;;;;;5044177;28;20948;-62
2023/01/28 05:53:07;;;;;;;8.37;5.80;;;2.10;1.00;;;;;;5056410;28;20569;-62
2023/01/28 05:55:33;;;;;;;6.87;5.50;;;2.20;1.00;;;;;;5046129;28;20858;-61
2023/01/28 05:57:58;;;;;;;8.00;6.10;;;2.20;1.00;;;;;;5044491;28;20459;-61
2023/01/28 06:00:24;;;;;;;7.90;5.73;;;2.20;1.00;;;;;;5045557;28;20200;-62
2023/01/28 06:02:53;;;;;;;10.03;7.43;;;2.30;1.00;;;;;;5042757;28;20208;-63
2023/01/28 06:05:19;;;;;;;5.67;5.00;;;2.20;1.00;;;;;;5044418;28;20206;-62
2023/01/28 06:07:45;;;;;;;6.37;5.77;;;1.90;1.00;;;;;;5043159;28;20455;-62
2023/01/28 06:10:12;;;;;;;6.10;5.60;;;1.70;1.00;;;;;;5046378;28;20822;-60
2023/01/28 06:12:38;;;;;;;10.73;6.60;;;1.70;1.00;;;;;;5042569;28;20804;-61
2023/01/28 06:15:04;;;;;;;8.40;5.73;;;1.70;1.00;;;;;;5039843;28;20456;-63
2023/01/28 06:17:29;;;;;;;5.90;5.30;;;1.60;1.00;;;;;;5046368;28;20500;-63
2023/01/28 06:19:55;;;;;;;7.30;6.10;;;1.70;1.00;;;;;;5046527;28;20456;-61
2023/01/28 06:22:21;;;;;;;7.33;6.53;;;1.70;1.00;;;;;;5044883;28;20201;-63
2023/01/28 06:24:46;;;;;;;7.30;6.13;;;1.60;1.00;;;;;;5045018;28;20901;-62
2023/01/28 06:27:12;;;;;;;7.07;5.60;;;1.60;1.00;;;;;;5044489;28;20198;-61
2023/01/28 06:29:38;;;;;;;5.73;5.10;;;1.40;1.00;;;;;;5044631;28;20259;-60
2023/01/28 06:32:04;;;;;;;5.63;4.67;;;1.10;1.00;;;;;;5045177;28;20262;-61
2023/01/28 06:34:30;;;;;;;6.27;4.23;;;1.10;1.00;;;;;;5047204;28;20216;-62
2023/01/28 06:36:55;;;;;;;5.97;5.10;;;1.00;1.00;;;;;;5045415;28;20868;-62
2023/01/28 06:39:21;;;;;;;5.50;5.00;;;1.00;1.00;;;;;;5043056;28;20188;-62
2023/01/28 06:41:48;;;;;;;6.03;5.37;;;1.00;1.00;;;;;;5042384;28;20208;-60
2023/01/28 06:44:14;;;;;;;6.90;5.60;;;1.00;1.00;;;;;;5044801;28;20280;-61
2023/01/28 06:46:39;;;;;;;7.90;6.27;;;1.10;1.00;;;;;;5041939;28;20551;-62
2023/01/28 06:49:05;;;;;;;8.70;6.70;;;1.30;1.00;;;;;;5044471;28;20198;-62
2023/01/28 06:51:31;;;;;;;5.10;4.50;;;1.50;1.00;;;;;;5048972;28;20225;-61
2023/01/28 06:53:56;;;;;;;8.30;5.50;;;1.50;1.00;;;;;;5045490;28;20228;-61
2023/01/28 06:56:22;;;;;;;6.77;4.60;;;1.40;1.00;;;;;;5047540;28;20187;-61
2023/01/28 06:58:48;;;;;;;4.50;4.00;;;1.20;1.00;;;;;;5048446;28;20460;-61
2023/01/28 07:01:14;;;;;;;6.67;4.37;;;1.30;1.00;;;;;;5042260;28;20452;-61
2023/01/28 07:03:39;;;;;;;5.27;4.07;;;1.30;1.00;;;;;;5045238;28;20201;-61
2023/01/28 07:06:05;;;;;;;5.80;4.43;;;1.20;1.00;;;;;;5045906;28;20246;-61
2023/01/28 07:08:31;;;;;;;5.13;4.63;;;1.20;1.00;;;;;;5045132;28;20196;-61
2023/01/28 07:10:58;;;;;;;5.50;3.60;;;1.20;1.00;;;;;;5044252;28;20942;-62
2023/01/28 07:13:23;;;;;;;5.17;4.63;;;1.20;1.00;;;;;;5044547;28;21003;-61
2023/01/28 07:15:49;;;;;;;3.60;3.30;;;1.20;1.00;;;;;;5044912;28;20448;-61
2023/01/28 07:18:15;;;;;;;5.80;4.80;;;1.20;1.00;;;;;;5047849;28;20245;-61
2023/01/28 07:20:41;;;;;;;3.67;3.27;;;1.10;1.00;;;;;;5042968;28;20186;-62
2023/01/28 07:23:06;;;;;;;4.60;3.40;;;1.10;1.00;;;;;;5047792;28;20661;-62
2023/01/28 07:25:32;;;;;;;6.30;4.20;;;1.20;1.00;;;;;;5047624;28;20470;-62
2023/01/28 07:28:00;;;;;;;4.20;3.80;;;1.10;1.00;;;;;;5049971;28;20203;-61
2023/01/28 07:30:26;;;;;;;4.37;3.73;;;1.20;1.00;;;;;;5068618;28;20184;-62
2023/01/28 07:32:56;;;;;;;4.73;3.30;;;1.40;1.00;;;;;;5047267;28;20482;-62
2023/01/28 07:35:22;;;;;;;3.90;3.60;;;1.40;1.00;;;;;;5044221;28;20803;-61
2023/01/28 07:37:57;;;;;;;3.23;2.80;;;1.50;1.00;;;;;;5044768;28;20802;-61
2023/01/28 07:40:23;;;;;;;3.57;2.50;;;1.40;1.00;;;;;;5044215;28;20509;-61
2023/01/28 07:42:49;;;;;;;5.40;3.40;;;1.20;1.00;;;;;;5045240;28;20459;-62
2023/01/28 07:45:15;;;;;;;3.97;3.60;;;1.10;1.00;;;;;;5045079;28;20796;-61
2023/01/28 07:47:41;;;;;;;5.70;3.93;;;1.10;1.00;;;;;;5042574;28;20659;-62
2023/01/28 07:50:09;;;;;;;4.00;3.60;;;1.30;1.00;;;;;;5041858;28;20443;-61
2023/01/28 07:52:43;;;;;;;6.00;5.40;;;1.30;1.00;;;;;;5045162;28;20496;-62
2023/01/28 07:55:09;;;;;;;6.57;5.87;;;1.30;1.00;;;;;;5043334;28;20444;-61
2023/01/28 07:57:35;;;;;;;6.10;4.33;;;1.50;1.00;;;;;;5042728;28;20531;-62
2023/01/28 08:00:00;;;;;;;6.37;4.67;;;1.60;1.00;;;;;;5043477;28;21076;-61
2023/01/28 08:02:28;;;;;;;4.80;4.40;;;1.60;1.00;;;;;;5041056;28;20191;-62
2023/01/28 08:04:53;;;;;;;5.50;4.43;;;1.60;1.00;;;;;;5043848;28;20276;-61
2023/01/28 08:07:19;;;;;;;5.13;4.40;;;1.60;1.00;;;;;;5040973;28;21142;-61
2023/01/28 08:09:45;;;;;;;9.93;3.33;;;1.60;1.00;;;;;;5044478;28;20204;-62
2023/01/28 08:12:10;;;;;;;5.53;3.63;;;1.50;1.00;;;;;;5043314;28;20548;-61
2023/01/28 08:14:36;;;;;;;7.57;4.63;;;1.20;1.00;;;;;;5043084;28;20312;-61
2023/01/28 08:17:02;;;;;;;5.03;4.50;;;1.20;1.00;;;;;;5036230;28;20187;-61
2023/01/28 08:19:28;;;;;;;5.23;4.67;;;1.40;1.00;;;;;;5041043;28;20620;-62
2023/01/28 08:21:53;;;;;;;6.90;5.30;;;1.60;1.00;;;;;;5046853;28;20538;-62
2023/01/28 08:24:20;;;;;;;4.67;3.90;;;1.70;1.00;;;;;;5050169;28;20192;-62
2023/01/28 08:26:47;;;;;;;4.23;3.67;;;1.80;1.00;;;;;;5048835;28;20197;-61
2023/01/28 08:29:13;;;;;;;4.97;4.43;;;1.80;1.00;;;;;;5051650;28;20796;-58
2023/01/28 08:31:38;;;;;;;4.97;4.47;;;1.80;1.00;;;;;;5045636;28;20452;-60
2023/01/28 08:34:04;;;;;;;6.03;5.30;;;1.90;1.00;;;;;;5047971;28;20705;-60
2023/01/28 08:36:29;;;;;;;5.33;4.83;;;1.90;1.00;;;;;;5049172;28;20719;-61
2023/01/28 08:38:55;;;;;;;8.07;4.73;;;2.10;1.00;;;;;;5050607;28;20192;-60
2023/01/28 08:41:21;;;;;;;5.10;4.60;;;2.10;1.00;;;;;;5044996;28;20264;-59
2023/01/28 08:43:48;;;;;;;3.43;3.17;;;1.90;1.00;;;;;;5044932;28;20655;-60
2023/01/28 08:46:14;;;;;;;5.83;3.60;;;2.00;1.00;;;;;;5052633;28;20453;-61
2023/01/28 08:48:39;;;;;;;5.67;3.57;;;2.10;1.00;;;;;;5046391;28;20451;-61
2023/01/28 08:51:05;;;;;;;8.10;4.53;;;2.30;1.00;;;;;;5044267;28;20460;-61
2023/01/28 08:53:31;;;;;;;5.50;4.03;;;2.40;1.00;;;;;;5048635;28;20515;-61
2023/01/28 08:55:56;;;;;;;7.57;4.00;;;2.30;1.00;;;;;;5048037;28;20201;-60
2023/01/28 08:58:22;;;;;;;5.57;4.80;;;2.30;1.00;;;;;;5047860;28;20204;-62
2023/01/28 09:00:48;;;;;;;5.33;4.80;;;2.10;1.00;;;;;;5049152;28;20231;-62
2023/01/28 09:03:14;;;;;;;4.03;3.73;;;2.10;1.00;;;;;;5048402;28;20265;-61
2023/01/28 09:05:40;;;;;;;8.10;4.60;;;2.20;1.00;;;;;;5050895;28;20522;-61
2023/01/28 09:08:08;;;;;;;5.00;4.30;;;2.30;1.00;;;;;;5047078;28;21408;-61
2023/01/28 09:10:36;;;;;;;5.40;4.90;;;2.30;1.00;;;;;;5048995;28;20195;-62
2023/01/28 09:13:06;;;;;;;4.53;3.50;;;2.20;1.00;;;;;;5048241;28;20564;-61
2023/01/28 09:15:32;;;;;;;4.30;3.90;;;2.10;1.00;;;;;;5050553;28;20441;-62
2023/01/28 09:17:58;;;;;;;5.43;4.50;;;2.00;1.00;;;;;;5047456;28;20586;-62
2023/01/28 09:20:24;;;;;;;6.33;4.67;;;2.10;1.00;;;;;;5047124;28;20576;-61
2023/01/28 09:22:49;;;;;;;5.57;3.93;;;2.30;1.00;;;;;;5043046;28;21715;-62
2023/01/28 09:25:15;;;;;;;4.93;3.97;;;3.10;1.00;;;;;;5048213;28;20451;-62
2023/01/28 09:27:41;;;;;;;4.87;4.37;;;2.60;1.00;;;;;;5068487;28;20184;-62
2023/01/28 09:30:09;;;;;;;9.30;4.30;;;2.50;1.00;;;;;;5043412;28;20539;-63
2023/01/28 09:32:34;;;;;;;4.95;3.75;;;2.40;1.00;;;;;;5049222;28;20193;-63
2023/01/28 09:35:00;;;;;;;3.43;3.13;;;2.40;1.00;;;;;;5053242;28;20794;-62
2023/01/28 09:37:26;;;;;;;3.60;3.30;;;2.50;1.00;;;;;;5046325;28;20190;-63
2023/01/28 09:39:51;;;;;;;4.43;3.13;;;2.60;1.00;;;;;;5047928;28;20266;-62
2023/01/28 09:42:25;;;;;;;6.13;3.13;;;2.60;1.00;;;;;;5040346;28;20194;-63
2023/01/28 09:45:36;;;;;;;6.40;3.67;;;2.50;1.00;;;;;;5045195;28;20190;-62
2023/01/28 09:48:05;;;;;;;8.57;7.67;;;2.50;1.00;;;;;;5042100;28;20970;-62
2023/01/28 09:50:40;;;;;;;6.90;3.60;;;2.60;1.00;;;;;;5041052;28;20452;-62
2023/01/28 09:53:19;;;;;;;5.03;3.87;;;2.70;1.00;;;;;;5044677;28;20484;-61
2023/01/28 09:55:58;;;;;;;4.73;3.03;;;2.50;1.00;;;;;;5045631;28;20479;-61
2023/01/28 09:58:24;;;;;;;3.23;2.93;;;2.50;1.00;;;;;;5044413;28;20459;-61
2023/01/28 10:00:49;;;;;;;4.30;3.67;;;1.70;1.00;;;;;;5038319;28;20442;-60
2023/01/28 10:03:31;;;;;;;5.23;3.93;;;2.40;1.00;;;;;;5046303;28;20217;-61
2023/01/28 10:06:18;;;;;;;6.47;3.53;;;2.50;1.00;;;;;;5049856;28;20185;-62
2023/01/28 10:08:43;;;;;;;4.73;3.33;;;2.70;1.00;;;;;;5048199;28;20443;-62
2023/01/28 10:11:36;;;;;;;6.33;3.87;;;2.80;1.00;;;;;;5048995;28;20458;-60
2023/01/28 10:14:12;;;;;;;3.87;2.90;;;2.80;1.00;;;;;;5046353;28;20709;-62
2023/01/28 10:17:07;;;;;;;4.20;3.50;;;2.80;1.00;;;;;;5053183;28;20492;-61
2023/01/28 10:19:45;;;;;;;3.40;2.93;;;2.60;1.00;;;;;;5045654;28;20802;-61
2023/01/28 10:22:24;;;;;;;3.13;2.70;;;2.30;1.00;;;;;;5047940;28;20597;-61
2023/01/28 10:24:57;;;;;;;4.73;3.63;;;2.20;1.00;;;;;;5046582;28;20805;-60
2023/01/28 10:27:27;;;;;;;6.73;4.43;;;2.20;1.00;;;;;;5043823;28;20455;-61
2023/01/28 10:29:52;;;;;;;5.30;4.80;;;2.40;1.00;;;;;;5042859;28;20494;-61
2023/01/28 10:32:29;;;;;;;5.07;4.10;;;2.30;1.00;;;;;;5043242;28;20924;-61
2023/01/28 10:34:58;;;;;;;5.40;3.80;;;2.30;1.00;;;;;;5041884;28;20841;-60
2023/01/28 10:37:24;;;;;;;5.10;3.70;;;2.20;1.00;;;;;;5044966;28;20814;-61
2023/01/28 10:39:55;;;;;;;4.93;2.83;;;2.10;1.00;;;;;;5041626;28;20444;-59
2023/01/28 10:42:35;;;;;;;4.53;3.63;;;2.20;1.00;;;;;;5044862;28;20475;-60
2023/01/28 10:45:25;;;;;;;9.07;3.70;;;2.30;1.00;;;;;;5048309;28;20519;-61
2023/01/28 10:48:06;;;;;;;7.43;2.90;;;2.30;1.00;;;;;;5042076;28;20448;-59
2023/01/28 10:50:34;;;;;;;3.83;3.43;;;2.30;1.00;;;;;;5046549;28;20478;-59
2023/01/28 10:53:05;;;;;;;4.90;4.03;;;2.20;1.00;;;;;;5040463;28;20480;-61
2023/01/28 10:55:53;;;;;;;5.57;4.97;;;2.40;1.00;;;;;;5037344;28;21029;-60
2023/01/28 10:58:22;;;;;;;5.37;3.10;;;2.40;1.00;;;;;;5046432;28;20494;-61
2023/01/28 11:00:53;;;;;;;3.23;2.90;;;2.20;1.00;;;;;;5045261;28;20479;-62
2023/01/28 11:03:20;;;;;;;3.37;3.07;;;2.10;1.00;;;;;;5042705;28;20449;-61
2023/01/28 11:05:56;;;;;;;4.97;3.70;;;2.10;1.00;;;;;;5047667;28;20935;-61
2023/01/28 11:08:24;;;;;;;4.07;2.90;;;2.00;1.00;;;;;;5046257;28;20446;-59
2023/01/28 11:10:51;;;;;;;2.93;2.73;;;1.90;1.00;;;;;;5048769;28;20452;-61
2023/01/28 11:13:26;;;;;;;5.53;2.80;;;1.90;1.00;;;;;;5046259;28;20480;-62
2023/01/28 11:16:02;;;;;;;3.90;3.13;;;1.90;1.00;;;;;;5046001;28;20452;-60
2023/01/28 11:18:32;;;;;;;4.83;4.13;;;2.10;1.00;;;;;;5044766;28;20440;-60
2023/01/28 11:21:05;;;;;;;5.80;3.87;;;2.40;1.00;;;;;;5043120;28;20445;-60
2023/01/28 11:23:33;;;;;;;4.90;3.90;;;2.60;1.00;;;;;;5044383;28;20457;-60
2023/01/28 11:26:04;;;;;;;3.93;2.87;;;2.60;1.00;;;;;;5046612;28;20468;-60
2023/01/28 11:28:30;;;;;;;4.40;3.07;;;2.40;1.00;;;;;;5047147;28;20433;-60
2023/01/28 11:30:59;;;;;;;8.30;4.03;;;2.10;1.00;;;;;;5046960;28;20956;-60
2023/01/28 11:33:43;;;;;;;5.57;2.57;;;1.90;1.00;;;;;;5047388;28;20494;-60
2023/01/28 11:36:24;;;;;;;3.37;2.90;;;1.90;1.00;;;;;;5045363;28;20451;-60
2023/01/28 11:38:59;;;;;;;7.63;4.40;;;2.00;1.00;;;;;;5050674;28;20455;-60
2023/01/28 11:41:32;;;;;;;6.23;5.17;;;1.90;1.00;;;;;;5041878;28;20919;-60
2023/01/28 11:44:00;;;;;;;5.53;4.40;;;2.00;1.00;;;;;;5052469;28;21287;-60
2023/01/28 11:46:26;;;;;;;4.20;3.70;;;2.00;1.00;;;;;;5045062;28;20452;-61
2023/01/28 11:49:27;;;;;;;3.93;3.63;;;1.90;1.00;;;;;;5044583;28;20454;-59
2023/01/28 11:52:13;;;;;;;5.60;4.53;;;1.90;1.00;;;;;;5045924;28;20685;-60
2023/01/28 11:54:57;;;;;;;3.73;3.03;;;1.90;1.00;;;;;;5052192;28;20589;-60
2023/01/28 11:57:32;;;;;;;5.07;3.70;;;1.90;1.00;;;;;;5047133;28;20443;-60
2023/01/28 12:00:30;;;;;;;5.70;5.20;;;1.90;1.00;;;;;;5047831;28;21693;-60
2023/01/28 12:03:17;;;;;;;6.53;4.37;;;2.00;1.00;;;;;;5049921;28;20817;-60
2023/01/28 12:05:53;;;;;;;5.47;3.50;;;2.00;1.00;;;;;;5044178;28;20448;-60
2023/01/28 12:08:23;;;;;;;3.30;2.97;;;2.10;1.00;;;;;;5049177;28;20766;-60
2023/01/28 12:11:01;;;;;;;4.70;3.40;;;2.10;1.00;;;;;;5047397;28;20444;-59
2023/01/28 12:13:29;;;;;;;4.83;3.57;;;2.20;1.00;;;;;;5050481;28;20510;-60
2023/01/28 12:16:36;;;;;;;3.73;3.43;;;2.30;1.00;;;;;;5046797;28;20448;-61
2023/01/28 12:19:19;;;;;;;10.43;7.50;;;2.30;1.00;;;;;;5012549;28;20872;-61
2023/01/28 12:21:50;;;;;;;4.33;3.50;;;2.30;1.00;;;;;;5047571;28;20577;-60
2023/01/28 12:24:27;;;;;;;4.77;3.67;;;2.20;1.00;;;;;;5054660;28;20451;-60
2023/01/28 12:27:26;;;;;;;4.47;3.50;;;2.30;1.00;;;;;;5047810;28;20536;-61
2023/01/28 12:30:37;;;;;;;4.03;3.73;;;2.30;1.00;;;;;;5045338;28;20447;-59
2023/01/28 12:33:03;;;;;;;5.47;3.13;;;2.60;1.00;;;;;;5047311;28;20473;-60
2023/01/28 12:35:49;;;;;;;3.97;2.73;;;2.80;1.00;;;;;;5040185;28;20451;-61
2023/01/28 12:38:24;;;;;;;6.10;2.53;;;2.80;1.00;;;;;;5043288;28;20531;-61
2023/01/28 12:41:06;;;;;;;4.77;3.23;;;2.70;1.00;;;;;;5043280;28;20445;-61
2023/01/28 12:43:57;;;;;;;2.93;2.63;;;2.80;1.00;;;;;;5044686;28;20453;-60
2023/01/28 12:46:30;;;;;;;4.80;3.20;;;2.70;1.00;;;;;;5042753;28;20529;-61
2023/01/28 12:49:02;;;;;;;6.50;4.13;;;2.80;1.00;;;;;;5047135;28;20444;-59
2023/01/28 12:51:37;;;;;;;4.80;3.73;;;2.80;1.00;;;;;;5047625;28;20474;-60
2023/01/28 12:54:44;;;;;;;4.60;4.13;;;2.60;1.00;;;;;;5042187;28;20581;-60
2023/01/28 12:57:20;;;;;;;6.50;3.70;;;2.70;1.00;;;;;;5044865;28;20440;-61
2023/01/28 12:59:50;;;;;;;5.77;3.40;;;2.80;1.00;;;;;;5045710;28;20442;-59
2023/01/28 13:02:23;;;;;;;4.67;3.17;;;2.70;1.00;;;;;;5046875;28;20432;-60
2023/01/28 13:04:55;;;;;;;5.53;3.33;;;2.50;1.00;;;;;;5049614;28;20509;-59
2023/01/28 13:07:42;;;;;;;5.23;3.63;;;2.50;1.00;;;;;;5051204;28;21106;-59
2023/01/28 13:10:41;;;;;;;3.47;3.17;;;2.50;1.00;;;;;;5048727;28;20486;-61
2023/01/28 13:13:32;;;;;;;4.13;3.40;;;2.50;1.00;;;;;;5048875;28;20952;-61
2023/01/28 13:15:59;;;;;;;14.57;5.37;;;2.60;1.00;;;;;;5047588;28;20534;-60
2023/01/28 13:18:43;;;;;;;4.90;3.90;;;2.60;1.00;;;;;;5048383;28;20871;-61
2023/01/28 13:21:23;;;;;;;6.73;5.50;;;2.70;1.00;;;;;;5055629;28;20944;-60
2023/01/28 13:24:01;;;;;;;6.80;4.93;;;2.90;1.00;;;;;;5042158;28;20461;-61
2023/01/28 13:26:27;;;;;;;3.83;3.43;;;2.90;1.00;;;;;;5046456;28;20452;-60
2023/01/28 13:29:05;;;;;;;5.53;4.33;;;3.10;1.00;;;;;;5051305;28;20963;-62
2023/01/28 13:31:40;;;;;;;4.97;4.00;;;3.10;1.00;;;;;;5047205;28;20233;-60
2023/01/28 13:34:07;;;;;;;4.83;3.20;;;3.10;1.00;;;;;;5045316;28;20472;-61
2023/01/28 13:36:38;;;;;;;5.87;4.00;;;3.10;1.00;;;;;;5046514;28;20448;-60
2023/01/28 13:39:15;;;;;;;5.30;3.63;;;3.00;1.00;;;;;;5044197;28;20449;-61
2023/01/28 13:41:45;;;;;;;5.47;3.50;;;2.80;1.00;;;;;;5048413;28;20489;-61
2023/01/28 13:44:18;;;;;;;4.60;4.20;;;2.70;1.00;;;;;;5046684;28;20451;-60
2023/01/28 13:46:43;;;;;;;5.03;4.53;;;2.70;1.00;;;;;;5043379;28;20488;-61
2023/01/28 13:49:15;;;;;;;4.53;4.13;;;2.80;1.00;;;;;;5047087;28;20448;-61
2023/01/28 13:51:55;;;;;;;6.13;3.87;;;2.70;1.00;;;;;;5048216;28;20220;-61
2023/01/28 13:54:22;;;;;;;5.30;3.00;;;2.90;1.00;;;;;;5041783;28;20553;-60